createdAt,value
2023-05-08T00:02:01.408Z,102119.84
2023-05-08T00:04:32.736Z,102105.38
2023-05-08T00:07:04.223Z,102111.41
2023-05-08T00:09:35.649Z,102105.88
2023-05-08T00:12:07.143Z,102104.28
2023-05-08T00:14:38.347Z,102102.59
2023-05-08T00:17:10.167Z,102085.94
2023-05-08T00:19:41.683Z,102067.81
2023-05-08T00:22:12.975Z,102067.00
2023-05-08T00:24:43.927Z,102061.00
2023-05-08T00:27:15.413Z,102047.78
2023-05-08T00:29:47.452Z,102051.38
2023-05-08T00:32:19.420Z,102042.28
2023-05-08T00:34:50.303Z,102035.81
2023-05-08T00:37:21.512Z,102024.19
2023-05-08T00:39:52.485Z,102030.34
2023-05-08T00:42:23.565Z,102026.72
2023-05-08T00:44:55.528Z,102029.69
2023-05-08T00:47:26.915Z,102034.56
2023-05-08T00:49:58.693Z,102040.16
2023-05-08T00:52:31.872Z,102043.50
2023-05-08T00:55:04.917Z,102033.63
2023-05-08T00:57:37.076Z,102027.88
2023-05-08T01:00:09.226Z,102033.63
2023-05-08T01:02:42.105Z,102023.25
2023-05-08T01:05:14.442Z,102018.34
2023-05-08T01:07:45.985Z,102014.19
2023-05-08T01:10:17.904Z,102007.91
2023-05-08T01:13:34.521Z,101980.75
2023-05-08T01:16:19.654Z,101987.59
2023-05-08T01:19:09.569Z,101990.00
2023-05-08T01:21:52.029Z,101974.97
2023-05-08T01:24:41.207Z,101955.78
2023-05-08T01:27:43.413Z,101951.94
2023-05-08T01:30:52.819Z,101952.06
2023-05-08T01:33:59.610Z,101918.84
2023-05-08T01:36:36.850Z,101939.59
2023-05-08T01:39:43.056Z,101934.94
2023-05-08T01:42:41.922Z,101934.31
2023-05-08T01:45:31.254Z,101947.09
2023-05-08T01:48:17.397Z,101945.72
2023-05-08T01:50:57.864Z,101956.47
2023-05-08T01:53:33.167Z,101951.28
2023-05-08T01:56:10.591Z,101955.13
2023-05-08T01:58:42.526Z,101955.91
2023-05-08T02:01:15.419Z,101960.88
2023-05-08T02:03:47.540Z,101958.13
2023-05-08T02:06:21.244Z,101939.22
2023-05-08T02:08:53.341Z,101934.25
2023-05-08T02:11:27.028Z,101914.34
2023-05-08T02:14:12.259Z,101931.28
2023-05-08T02:16:48.474Z,101937.59
2023-05-08T02:19:23.621Z,101936.44
2023-05-08T02:21:59.576Z,101931.06
2023-05-08T02:24:42.483Z,101935.66
2023-05-08T02:27:19.280Z,101943.59
2023-05-08T02:29:56.564Z,101942.78
2023-05-08T02:32:34.066Z,101935.63
2023-05-08T02:35:08.713Z,101938.13
2023-05-08T02:37:47.729Z,101925.81
2023-05-08T02:40:21.990Z,101922.81
2023-05-08T02:42:59.876Z,101931.81
2023-05-08T02:45:56.114Z,101924.69
2023-05-08T02:49:02.469Z,101928.22
2023-05-08T02:51:51.939Z,101927.34
2023-05-08T02:54:36.497Z,101928.41
2023-05-08T02:57:26.387Z,101936.13
2023-05-08T03:00:20.062Z,101931.84
2023-05-08T03:03:14.202Z,101923.47
2023-05-08T03:05:55.128Z,101930.56
2023-05-08T03:08:39.947Z,101929.41
2023-05-08T03:11:18.649Z,101915.06
2023-05-08T03:13:51.381Z,101930.91
2023-05-08T03:16:32.189Z,101936.03
2023-05-08T03:19:14.393Z,101914.53
2023-05-08T03:21:49.053Z,101926.34
2023-05-08T03:24:28.596Z,101932.19
2023-05-08T03:27:03.090Z,101917.47
2023-05-08T03:29:37.782Z,101912.59
2023-05-08T03:32:11.548Z,101928.81
2023-05-08T03:34:45.379Z,101937.56
2023-05-08T03:37:19.876Z,101940.06
2023-05-08T03:40:00.203Z,101930.75
2023-05-08T03:42:34.128Z,101954.56
2023-05-08T03:45:10.933Z,101942.75
2023-05-08T03:47:44.428Z,101929.59
2023-05-08T03:50:17.312Z,101951.47
2023-05-08T03:52:53.474Z,101929.56
2023-05-08T03:55:25.180Z,101944.53
2023-05-08T03:58:03.994Z,101951.56
2023-05-08T04:01:12.989Z,101948.56
2023-05-08T04:04:15.389Z,101945.03
2023-05-08T04:07:03.167Z,101945.78
2023-05-08T04:10:00.790Z,101950.44
2023-05-08T04:13:11.537Z,101933.22
2023-05-08T04:16:25.596Z,101926.13
2023-05-08T04:19:27.826Z,101922.50
2023-05-08T04:22:04.816Z,101919.66
2023-05-08T04:24:45.909Z,101916.94
2023-05-08T04:27:20.328Z,101913.44
2023-05-08T04:29:52.650Z,101904.13
2023-05-08T04:32:25.445Z,101904.19
2023-05-08T04:37:57.792Z,101878.34
2023-05-08T04:40:30.385Z,101894.22
2023-05-08T04:43:05.814Z,101890.34
2023-05-08T04:45:37.092Z,101886.84
2023-05-08T04:48:09.374Z,101875.34
2023-05-08T04:50:40.524Z,101885.41
2023-05-08T04:53:11.953Z,101880.44
2023-05-08T04:55:43.647Z,101885.09
2023-05-08T04:58:15.441Z,101883.41
2023-05-08T05:00:46.439Z,101881.69
2023-05-08T05:03:17.975Z,101888.69
2023-05-08T05:05:49.348Z,101884.13
2023-05-08T05:08:20.792Z,101882.19
2023-05-08T05:10:52.187Z,101873.97
2023-05-08T05:13:23.204Z,101884.53
2023-05-08T05:15:55.816Z,101883.50
2023-05-08T05:18:27.732Z,101885.59
2023-05-08T05:21:00.790Z,101858.22
2023-05-08T05:23:33.613Z,101880.38
2023-05-08T05:26:04.903Z,101889.09
2023-05-08T05:28:35.882Z,101890.44
2023-05-08T05:31:07.607Z,101887.66
2023-05-08T05:33:39.764Z,101885.88
2023-05-08T05:36:10.980Z,101888.75
2023-05-08T05:38:42.240Z,101890.41
2023-05-08T05:41:13.385Z,101870.41
2023-05-08T05:43:44.707Z,101878.91
2023-05-08T05:46:16.263Z,101872.09
2023-05-08T05:48:48.127Z,101880.22
2023-05-08T05:51:19.115Z,101881.28
2023-05-08T05:53:50.556Z,101878.16
2023-05-08T05:56:23.142Z,101875.91
2023-05-08T05:58:54.743Z,101881.06
2023-05-08T06:01:26.502Z,101877.22
2023-05-08T06:03:57.484Z,101886.41
2023-05-08T06:06:29.082Z,101878.19
2023-05-08T06:09:01.232Z,101885.81
2023-05-08T06:11:32.846Z,101874.91
2023-05-08T06:14:04.285Z,101879.28
2023-05-08T06:16:37.138Z,101850.41
2023-05-08T06:19:09.638Z,101860.72
2023-05-08T06:21:41.326Z,101877.75
2023-05-08T06:24:13.191Z,101869.59
2023-05-08T06:26:44.684Z,101873.91
2023-05-08T06:29:16.034Z,101879.59
2023-05-08T06:31:47.601Z,101880.91
2023-05-08T06:34:18.951Z,101880.75
2023-05-08T06:36:49.641Z,101877.72
2023-05-08T06:39:21.117Z,101875.25
2023-05-08T06:41:52.393Z,101867.31
2023-05-08T06:44:32.590Z,101877.22
2023-05-08T06:47:04.580Z,101876.41
2023-05-08T06:49:39.424Z,101875.88
2023-05-08T06:52:11.031Z,101869.88
2023-05-08T06:54:43.520Z,101866.00
2023-05-08T06:57:17.743Z,101862.50
2023-05-08T06:59:49.196Z,101855.84
2023-05-08T07:02:20.896Z,101862.66
2023-05-08T07:04:51.598Z,101855.84
2023-05-08T07:07:22.614Z,101854.00
2023-05-08T07:09:53.925Z,101854.66
2023-05-08T07:12:25.172Z,101854.72
2023-05-08T07:14:57.910Z,101854.06
2023-05-08T07:17:29.309Z,101842.94
2023-05-08T07:20:00.166Z,101842.69
2023-05-08T07:22:31.877Z,101841.53
2023-05-08T07:25:03.229Z,101831.56
2023-05-08T07:27:34.746Z,101839.13
2023-05-08T07:30:07.022Z,101834.53
2023-05-08T07:32:40.727Z,101831.72
2023-05-08T07:35:14.250Z,101815.97
2023-05-08T07:37:46.111Z,101802.84
2023-05-08T07:40:17.863Z,101801.06
2023-05-08T07:42:50.437Z,101807.81
2023-05-08T07:45:21.716Z,101819.72
2023-05-08T07:47:58.721Z,101816.75
2023-05-08T07:50:30.706Z,101821.69
2023-05-08T07:53:02.049Z,101812.63
2023-05-08T07:55:33.346Z,101818.84
2023-05-08T07:58:05.416Z,101811.31
2023-05-08T08:00:36.991Z,101808.84
2023-05-08T08:03:08.828Z,101811.00
2023-05-08T08:05:41.133Z,101798.38
2023-05-08T08:08:12.335Z,101796.00
2023-05-08T08:10:43.776Z,101790.06
2023-05-08T08:13:14.911Z,101794.03
2023-05-08T08:15:46.427Z,101802.94
2023-05-08T08:18:18.013Z,101792.63
2023-05-08T08:20:49.354Z,101799.50
2023-05-08T08:23:20.773Z,101804.66
2023-05-08T08:25:53.032Z,101768.94
2023-05-08T08:28:24.342Z,101789.38
2023-05-08T08:30:55.661Z,101793.38
2023-05-08T08:33:27.279Z,101779.34
2023-05-08T08:35:58.014Z,101791.91
2023-05-08T08:38:29.369Z,101781.69
2023-05-08T08:41:01.066Z,101782.69
2023-05-08T08:43:32.638Z,101757.59
2023-05-08T08:46:16.045Z,101740.78
2023-05-08T08:48:49.065Z,101765.06
2023-05-08T08:51:43.169Z,101762.59
2023-05-08T08:54:15.979Z,101762.84
2023-05-08T08:56:48.673Z,101764.75
2023-05-08T08:59:20.873Z,101750.84
2023-05-08T09:01:59.023Z,101744.63
2023-05-08T09:04:31.101Z,101743.31
2023-05-08T09:07:04.380Z,101734.06
2023-05-08T09:09:37.210Z,101732.09
2023-05-08T09:12:09.363Z,101733.59
2023-05-08T09:14:40.846Z,101729.63
2023-05-08T09:17:12.623Z,101735.63
2023-05-08T09:19:45.369Z,101744.53
2023-05-08T09:22:16.945Z,101732.69
2023-05-08T09:25:08.516Z,101735.97
2023-05-08T09:27:39.914Z,101736.34
2023-05-08T09:30:13.858Z,101728.75
2023-05-08T09:32:47.134Z,101743.19
2023-05-08T09:35:18.556Z,101738.03
2023-05-08T09:37:50.282Z,101743.53
2023-05-08T09:40:22.384Z,101745.47
2023-05-08T09:42:53.673Z,101748.41
2023-05-08T09:45:33.429Z,101745.44
2023-05-08T09:48:04.884Z,101750.00
2023-05-08T09:50:35.810Z,101747.78
2023-05-08T09:53:07.654Z,101743.69
2023-05-08T09:56:05.777Z,101735.50
2023-05-08T09:58:44.654Z,101732.78
2023-05-08T10:01:36.411Z,101718.88
2023-05-08T10:04:07.525Z,101723.16
2023-05-08T10:06:39.052Z,101710.66
2023-05-08T10:09:16.987Z,101712.00
2023-05-08T10:11:55.984Z,101709.22
2023-05-08T10:14:27.742Z,101714.88
2023-05-08T10:16:58.382Z,101704.13
2023-05-08T10:19:39.417Z,101707.28
2023-05-08T10:22:15.644Z,101706.16
2023-05-08T10:24:47.153Z,101700.72
2023-05-08T10:27:26.261Z,101694.09
2023-05-08T10:30:00.029Z,101721.66
2023-05-08T10:32:37.557Z,101722.97
2023-05-08T10:35:12.284Z,101723.75
2023-05-08T10:37:43.869Z,101721.34
2023-05-08T10:40:17.404Z,101716.91
2023-05-08T10:42:48.683Z,101720.00
2023-05-08T10:45:19.591Z,101707.75
2023-05-08T10:48:07.976Z,101700.38
2023-05-08T10:50:47.128Z,101703.94
2023-05-08T10:53:57.481Z,101697.94
2023-05-08T10:56:29.928Z,101699.53
2023-05-08T10:59:01.686Z,101690.81
2023-05-08T11:01:33.520Z,101687.25
2023-05-08T11:04:08.263Z,101685.22
2023-05-08T11:06:48.160Z,101685.06
2023-05-08T11:09:25.886Z,101680.19
2023-05-08T11:12:25.552Z,101679.00
2023-05-08T11:15:08.914Z,101682.81
2023-05-08T11:17:47.910Z,101680.75
2023-05-08T11:20:19.425Z,101678.59
2023-05-08T11:22:51.074Z,101671.88
2023-05-08T11:25:22.918Z,101672.41
2023-05-08T11:27:54.005Z,101666.41
2023-05-08T11:30:38.501Z,101668.59
2023-05-08T11:33:13.220Z,101674.34
2023-05-08T11:35:47.664Z,101665.41
2023-05-08T11:38:38.035Z,101665.41
2023-05-08T11:41:27.702Z,101662.97
2023-05-08T11:44:10.878Z,101657.56
2023-05-08T11:46:55.300Z,101656.81
2023-05-08T11:49:29.791Z,101647.75
2023-05-08T11:52:02.622Z,101655.19
2023-05-08T11:54:34.971Z,101649.19
2023-05-08T11:57:06.023Z,101655.97
2023-05-08T11:59:40.509Z,101651.25
2023-05-08T12:02:11.887Z,101644.69
2023-05-08T12:04:47.873Z,101631.56
2023-05-08T12:07:20.249Z,101624.19
2023-05-08T12:09:51.500Z,101617.13
2023-05-08T12:12:23.230Z,101609.50
2023-05-08T12:14:55.496Z,101604.91
2023-05-08T12:17:27.321Z,101598.88
2023-05-08T12:20:05.569Z,101586.59
2023-05-08T12:22:37.069Z,101583.00
2023-05-08T12:25:10.725Z,101582.44
2023-05-08T12:27:42.301Z,101577.03
2023-05-08T12:30:16.425Z,101577.56
2023-05-08T12:32:49.032Z,101559.22
2023-05-08T12:35:20.744Z,101577.81
2023-05-08T12:37:54.358Z,101572.13
2023-05-08T12:40:44.133Z,101573.47
2023-05-08T12:43:15.900Z,101576.13
2023-05-08T12:45:47.741Z,101582.41
2023-05-08T12:48:19.002Z,101582.19
2023-05-08T12:50:50.391Z,101586.22
2023-05-08T12:53:23.259Z,101588.69
2023-05-08T12:55:59.130Z,101590.38
2023-05-08T12:58:35.295Z,101590.91
2023-05-08T13:01:11.370Z,101581.16
2023-05-08T13:03:43.335Z,101575.72
2023-05-08T13:06:24.731Z,101564.84
2023-05-08T13:08:56.914Z,101560.00
2023-05-08T13:11:36.091Z,101543.03
2023-05-08T13:14:07.666Z,101559.56
2023-05-08T13:16:49.468Z,101551.66
2023-05-08T13:19:20.518Z,101540.56
2023-05-08T13:21:51.864Z,101540.03
2023-05-08T13:24:23.394Z,101529.88
2023-05-08T13:26:54.758Z,101533.44
2023-05-08T13:29:25.844Z,101533.13
2023-05-08T13:31:57.268Z,101533.38
2023-05-08T13:34:28.760Z,101527.88
2023-05-08T13:37:00.311Z,101514.53
2023-05-08T13:39:34.276Z,101510.41
2023-05-08T13:42:06.322Z,101509.34
2023-05-08T13:44:36.943Z,101496.00
2023-05-08T13:47:08.173Z,101487.25
2023-05-08T13:49:39.547Z,101494.00
2023-05-08T13:52:10.921Z,101493.47
2023-05-08T13:54:42.287Z,101472.16
2023-05-08T13:57:14.277Z,101481.97
2023-05-08T13:59:53.179Z,101493.69
2023-05-08T14:02:24.629Z,101478.78
2023-05-08T14:04:56.294Z,101474.44
2023-05-08T14:07:27.754Z,101477.41
2023-05-08T14:09:59.199Z,101468.06
2023-05-08T14:12:30.383Z,101468.91
2023-05-08T14:15:01.773Z,101473.84
2023-05-08T14:17:36.678Z,101466.00
2023-05-08T14:20:11.057Z,101475.47
2023-05-08T14:22:43.261Z,101465.63
2023-05-08T14:25:14.961Z,101472.38
2023-05-08T14:27:46.549Z,101461.78
2023-05-08T14:30:17.997Z,101463.09
2023-05-08T14:32:49.187Z,101455.72
2023-05-08T14:35:21.003Z,101437.22
2023-05-08T14:37:51.838Z,101443.28
2023-05-08T14:40:24.605Z,101436.47
2023-05-08T14:42:56.271Z,101437.88
2023-05-08T14:45:27.539Z,101425.38
2023-05-08T14:47:58.784Z,101422.69
2023-05-08T14:50:30.369Z,101416.47
2023-05-08T14:53:01.928Z,101412.41
2023-05-08T14:55:33.590Z,101404.56
2023-05-08T14:58:06.463Z,101398.63
2023-05-08T15:00:38.031Z,101400.03
2023-05-08T15:03:09.768Z,101411.25
2023-05-08T15:05:40.797Z,101410.44
2023-05-08T15:08:12.487Z,101402.50
2023-05-08T15:10:44.281Z,101401.72
2023-05-08T15:13:15.908Z,101398.44
2023-05-08T15:15:47.131Z,101398.38
2023-05-08T15:18:18.438Z,101403.28
2023-05-08T15:20:50.181Z,101391.03
2023-05-08T15:23:22.643Z,101391.81
2023-05-08T15:25:54.009Z,101379.34
2023-05-08T15:28:25.553Z,101383.13
2023-05-08T15:30:57.007Z,101379.59
2023-05-08T15:33:28.729Z,101348.03
2023-05-08T15:36:00.366Z,101345.66
2023-05-08T15:38:31.832Z,101343.00
2023-05-08T15:41:03.513Z,101343.19
2023-05-08T15:43:35.023Z,101340.19
2023-05-08T15:46:06.123Z,101337.75
2023-05-08T15:48:37.525Z,101331.53
2023-05-08T15:51:08.849Z,101317.06
2023-05-08T15:53:40.542Z,101319.00
2023-05-08T15:56:12.109Z,101312.97
2023-05-08T15:58:45.328Z,101318.94
2023-05-08T16:01:16.568Z,101324.91
2023-05-08T16:03:48.447Z,101303.94
2023-05-08T16:06:19.131Z,101300.44
2023-05-08T16:08:50.596Z,101300.13
2023-05-08T16:11:23.277Z,101305.56
2023-05-08T16:13:54.784Z,101293.91
2023-05-08T16:16:26.424Z,101274.59
2023-05-08T16:18:58.014Z,101265.88
2023-05-08T16:21:29.224Z,101258.31
2023-05-08T16:24:00.797Z,101258.31
2023-05-08T16:26:32.137Z,101245.78
2023-05-08T16:29:03.833Z,101253.16
2023-05-08T16:31:35.089Z,101242.47
2023-05-08T16:34:06.530Z,101246.09
2023-05-08T16:36:37.782Z,101233.59
2023-05-08T16:39:09.815Z,101220.28
2023-05-08T16:41:40.928Z,101227.13
2023-05-08T16:44:12.489Z,101231.38
2023-05-08T16:46:44.112Z,101231.94
2023-05-08T16:49:16.391Z,101225.41
2023-05-08T16:51:48.020Z,101224.81
2023-05-08T16:54:19.148Z,101231.13
2023-05-08T16:56:50.404Z,101216.97
2023-05-08T16:59:22.836Z,101220.47
2023-05-08T17:01:53.954Z,101214.59
2023-05-08T17:04:25.172Z,101199.34
2023-05-08T17:06:56.960Z,101187.16
2023-05-08T17:09:29.546Z,101161.19
2023-05-08T17:12:03.294Z,101180.81
2023-05-08T17:14:36.598Z,101178.69
2023-05-08T17:17:08.315Z,101179.72
2023-05-08T17:19:39.718Z,101174.63
2023-05-08T17:22:11.018Z,101153.31
2023-05-08T17:24:42.523Z,101153.75
2023-05-08T17:27:14.254Z,101140.47
2023-05-08T17:29:45.568Z,101148.03
2023-05-08T17:32:16.920Z,101146.97
2023-05-08T17:34:48.032Z,101144.56
2023-05-08T17:37:19.166Z,101136.69
2023-05-08T17:39:50.762Z,101140.28
2023-05-08T17:42:22.156Z,101146.78
2023-05-08T17:44:53.244Z,101149.50
2023-05-08T17:47:24.509Z,101150.09
2023-05-08T17:49:55.597Z,101149.28
2023-05-08T17:52:27.291Z,101151.16
2023-05-08T17:54:58.497Z,101158.50
2023-05-08T17:57:29.830Z,101144.91
2023-05-08T18:00:03.030Z,101141.41
2023-05-08T18:02:39.090Z,101141.97
2023-05-08T18:05:11.487Z,101118.59
2023-05-08T18:07:42.864Z,101131.94
2023-05-08T18:10:14.436Z,101139.50
2023-05-08T18:12:45.108Z,101136.25
2023-05-08T18:15:16.563Z,101112.03
2023-05-08T18:17:48.016Z,101125.41
2023-05-08T18:20:19.375Z,101134.94
2023-05-08T18:22:50.830Z,101149.59
2023-05-08T18:25:22.290Z,101142.00
2023-05-08T18:27:53.522Z,101133.03
2023-05-08T18:30:24.597Z,101128.13
2023-05-08T18:32:55.816Z,101125.16
2023-05-08T18:35:27.151Z,101113.97
2023-05-08T18:37:59.097Z,101120.47
2023-05-08T18:40:30.380Z,101121.06
2023-05-08T18:43:01.879Z,101120.47
2023-05-08T18:45:33.031Z,101124.28
2023-05-08T18:48:06.967Z,101103.91
2023-05-08T18:50:39.824Z,101107.72
2023-05-08T18:53:11.439Z,101106.13
2023-05-08T18:55:43.336Z,101102.34
2023-05-08T18:58:15.509Z,101093.94
2023-05-08T19:00:47.826Z,101083.63
2023-05-08T19:03:19.934Z,101093.97
2023-05-08T19:05:52.843Z,101082.84
2023-05-08T19:08:24.475Z,101067.66
2023-05-08T19:10:55.852Z,101074.22
2023-05-08T19:13:27.322Z,101072.59
2023-05-08T19:15:58.859Z,101079.72
2023-05-08T19:18:31.815Z,101080.25
2023-05-08T19:21:04.013Z,101084.91
2023-05-08T19:23:35.459Z,101087.63
2023-05-08T19:26:07.200Z,101098.22
2023-05-08T19:28:38.479Z,101093.59
2023-05-08T19:31:09.819Z,101105.00
2023-05-08T19:33:41.520Z,101104.22
2023-05-08T19:36:13.353Z,101114.25
2023-05-08T19:38:45.028Z,101112.38
2023-05-08T19:41:16.705Z,101112.38
2023-05-08T19:43:48.111Z,101111.28
2023-05-08T19:46:19.477Z,101109.34
2023-05-08T19:48:50.689Z,101117.81
2023-05-08T19:51:22.216Z,101110.19
2023-05-08T19:53:53.393Z,101098.50
2023-05-08T19:56:24.398Z,101085.16
2023-05-08T19:58:55.670Z,101081.63
2023-05-08T20:01:27.048Z,101071.81
2023-05-08T20:04:00.665Z,101076.72
2023-05-08T20:06:32.510Z,101086.78
2023-05-08T20:09:04.213Z,101084.59
2023-05-08T20:11:39.185Z,101084.59
2023-05-08T20:14:10.435Z,101081.88
2023-05-08T20:16:43.334Z,101081.31
2023-05-08T20:19:14.859Z,101086.75
2023-05-08T20:21:46.635Z,101082.41
2023-05-08T20:24:18.545Z,101061.41
2023-05-08T20:26:49.976Z,101077.72
2023-05-08T20:29:21.280Z,101070.84
2023-05-08T20:31:53.398Z,101055.13
2023-05-08T20:34:24.916Z,101069.75
2023-05-08T20:36:57.710Z,101050.72
2023-05-08T20:39:29.625Z,101060.16
2023-05-08T20:42:00.249Z,101055.38
2023-05-08T20:44:31.594Z,101035.13
2023-05-08T20:47:02.907Z,101030.97
2023-05-08T20:49:34.497Z,101026.53
2023-05-08T20:52:06.961Z,101012.19
2023-05-08T20:54:38.057Z,101001.47
2023-05-08T20:57:09.693Z,101017.06
2023-05-08T20:59:42.146Z,101016.16
2023-05-08T21:02:14.027Z,101007.13
2023-05-08T21:04:45.882Z,101009.81
2023-05-08T21:07:17.320Z,101012.50
2023-05-08T21:09:48.779Z,100999.00
2023-05-08T21:12:19.975Z,100994.94
2023-05-08T21:14:51.601Z,101004.28
2023-05-08T21:17:23.262Z,100994.81
2023-05-08T21:19:54.764Z,100982.13
2023-05-08T21:22:26.352Z,100999.81
2023-05-08T21:24:57.639Z,100983.06
2023-05-08T21:27:29.027Z,100977.34
2023-05-08T21:30:00.322Z,100974.16
2023-05-08T21:32:35.203Z,100970.38
2023-05-08T21:35:06.847Z,100961.41
2023-05-08T21:37:37.696Z,100955.97
2023-05-08T21:40:09.729Z,100942.41
2023-05-08T21:42:42.458Z,100940.25
2023-05-08T21:45:14.251Z,100931.38
2023-05-08T21:47:45.694Z,100918.25
2023-05-08T21:50:17.321Z,100897.38
2023-05-08T21:52:48.372Z,100915.75
2023-05-08T21:55:20.053Z,100910.00
2023-05-08T21:57:51.657Z,100893.34
2023-05-08T22:00:23.653Z,100865.78
2023-05-08T22:02:57.840Z,100879.41
2023-05-08T22:05:29.032Z,100882.97
2023-05-08T22:08:00.353Z,100862.78
2023-05-08T22:10:31.592Z,100866.88
2023-05-08T22:13:03.435Z,100871.97
2023-05-08T22:15:35.334Z,100872.88
2023-05-08T22:18:07.140Z,100876.97
2023-05-08T22:20:38.706Z,100876.13
2023-05-08T22:23:10.069Z,100876.78
2023-05-08T22:25:41.449Z,100859.88
2023-05-08T22:28:12.848Z,100856.88
2023-05-08T22:30:44.579Z,100841.84
2023-05-08T22:33:15.487Z,100846.47
2023-05-08T22:35:46.722Z,100841.81
2023-05-08T22:38:17.871Z,100845.41
2023-05-08T22:40:49.746Z,100834.88
2023-05-08T22:43:21.987Z,100824.97
2023-05-08T22:45:53.896Z,100805.25
2023-05-08T22:48:25.377Z,100830.16
2023-05-08T22:50:55.933Z,100824.38
2023-05-08T22:53:27.407Z,100819.94
2023-05-08T22:55:58.622Z,100827.50
2023-05-08T22:58:30.815Z,100821.75
2023-05-08T23:01:02.913Z,100813.00
2023-05-08T23:03:35.204Z,100812.78
2023-05-08T23:06:08.452Z,100807.47
2023-05-08T23:08:39.873Z,100816.00
2023-05-08T23:11:11.798Z,100816.81
2023-05-08T23:13:42.785Z,100824.06
2023-05-08T23:16:14.387Z,100823.41
2023-05-08T23:18:45.122Z,100817.53
2023-05-08T23:21:16.504Z,100815.69
2023-05-08T23:23:48.088Z,100803.19
2023-05-08T23:26:18.654Z,100786.72
2023-05-08T23:28:49.978Z,100783.84
2023-05-08T23:31:21.091Z,100784.72
2023-05-08T23:33:52.039Z,100790.75
2023-05-08T23:36:23.803Z,100765.44
2023-05-08T23:38:54.609Z,100761.91
2023-05-08T23:41:27.561Z,100738.69
2023-05-08T23:43:58.792Z,100775.72
2023-05-08T23:46:30.161Z,100834.69
2023-05-08T23:49:01.312Z,100846.00
2023-05-08T23:51:33.572Z,100817.63
2023-05-08T23:54:07.281Z,100820.25
2023-05-08T23:56:38.969Z,100818.44
2023-05-08T23:59:10.240Z,100816.00
